createdAt,value
2023-05-08T00:00:08.160Z,12.85
2023-05-08T00:02:34.960Z,13.30
2023-05-08T00:05:01.836Z,11.35
2023-05-08T00:07:28.549Z,11.43
2023-05-08T00:09:55.293Z,12.38
2023-05-08T00:12:21.913Z,11.80
2023-05-08T00:48:09.510Z,10.50
2023-05-08T00:50:36.684Z,11.10
2023-05-08T00:53:04.456Z,10.57
2023-05-08T00:55:32.710Z,10.65
2023-05-08T00:57:59.707Z,10.13
2023-05-08T01:00:26.790Z,10.18
2023-05-08T01:02:53.828Z,9.75
2023-05-08T01:05:20.649Z,9.63
2023-05-08T01:07:47.487Z,9.38
2023-05-08T01:10:14.442Z,9.15
2023-05-08T01:12:44.526Z,9.80
2023-05-08T01:15:39.753Z,10.38
2023-05-08T01:18:35.641Z,11.55
2023-05-08T01:21:14.478Z,9.82
2023-05-08T01:24:13.103Z,11.05
2023-05-08T01:26:57.988Z,10.88
2023-05-08T01:30:01.318Z,10.52
2023-05-08T01:32:34.966Z,10.68
2023-05-08T01:35:10.768Z,11.02
2023-05-08T01:37:51.719Z,10.80
2023-05-08T01:40:45.515Z,10.57
2023-05-08T01:43:39.116Z,12.85
2023-05-08T01:46:13.436Z,11.57
2023-05-08T01:48:49.285Z,11.80
2023-05-08T01:51:23.725Z,12.68
2023-05-08T01:53:58.921Z,13.23
2023-05-08T01:56:28.509Z,13.32
2023-05-08T01:58:58.888Z,13.70
2023-05-08T02:01:29.117Z,12.48
2023-05-08T02:03:57.360Z,13.40
2023-05-08T02:06:26.814Z,12.98
2023-05-08T02:08:54.680Z,13.02
2023-05-08T02:11:24.663Z,12.68
2023-05-08T02:13:52.637Z,12.35
2023-05-08T02:16:20.851Z,12.82
2023-05-08T02:18:52.663Z,13.07
2023-05-08T02:21:20.651Z,13.10
2023-05-08T02:23:48.585Z,12.95
2023-05-08T02:26:16.410Z,12.55
2023-05-08T02:28:43.330Z,12.57
2023-05-08T02:31:12.037Z,12.30
2023-05-08T02:33:41.690Z,13.13
2023-05-08T02:36:10.836Z,13.57
2023-05-08T02:38:39.671Z,12.95
2023-05-08T02:41:07.960Z,13.00
2023-05-08T02:43:35.273Z,13.30
2023-05-08T02:46:14.558Z,12.05
2023-05-08T02:48:47.151Z,12.70
2023-05-08T02:51:37.624Z,12.77
2023-05-08T02:54:11.761Z,11.15
2023-05-08T02:57:01.642Z,11.77
2023-05-08T02:59:45.590Z,11.27
2023-05-08T03:02:35.444Z,10.85
2023-05-08T03:05:32.671Z,12.00
2023-05-08T03:08:08.017Z,11.07
2023-05-08T03:10:36.520Z,10.57
2023-05-08T03:13:05.786Z,9.80
2023-05-08T03:15:36.232Z,10.48
2023-05-08T03:18:07.386Z,10.30
2023-05-08T03:20:37.902Z,10.88
2023-05-08T03:23:06.572Z,11.05
2023-05-08T03:25:35.483Z,10.65
2023-05-08T03:28:04.989Z,11.10
2023-05-08T03:30:36.419Z,11.65
2023-05-08T03:33:05.252Z,14.45
2023-05-08T03:35:39.328Z,15.32
2023-05-08T03:38:06.732Z,14.93
2023-05-08T03:40:42.592Z,14.90
2023-05-08T03:43:10.190Z,14.13
2023-05-08T03:45:41.407Z,14.20
2023-05-08T03:48:09.288Z,15.45
2023-05-08T03:50:38.267Z,15.38
2023-05-08T03:53:05.464Z,16.23
2023-05-08T03:55:32.696Z,15.32
2023-05-08T03:58:35.537Z,14.18
2023-05-08T04:01:21.813Z,13.75
2023-05-08T04:04:22.063Z,13.38
2023-05-08T04:07:15.700Z,13.18
2023-05-08T04:10:03.242Z,13.98
2023-05-08T04:12:45.211Z,15.20
2023-05-08T04:15:20.553Z,14.00
2023-05-08T04:18:13.121Z,13.32
2023-05-08T04:20:41.844Z,12.55
2023-05-08T04:23:10.928Z,13.15
2023-05-08T04:25:39.757Z,13.63
2023-05-08T04:28:06.455Z,13.30
2023-05-08T04:30:33.750Z,12.15
2023-05-08T04:33:04.209Z,12.68
2023-05-08T04:35:31.328Z,10.77
2023-05-08T04:37:59.460Z,10.95
2023-05-08T04:40:26.477Z,12.00
2023-05-08T04:42:53.170Z,11.63
2023-05-08T04:45:20.156Z,11.73
2023-05-08T04:47:46.896Z,12.48
2023-05-08T04:50:13.642Z,12.00
2023-05-08T04:52:40.218Z,11.65
2023-05-08T04:55:07.540Z,12.88
2023-05-08T04:57:34.204Z,12.70
2023-05-08T05:00:00.973Z,12.05
2023-05-08T05:02:27.625Z,12.18
2023-05-08T05:04:54.222Z,12.98
2023-05-08T05:07:20.886Z,13.25
2023-05-08T05:09:47.539Z,12.40
2023-05-08T05:12:14.393Z,11.77
2023-05-08T05:14:41.070Z,12.82
2023-05-08T05:17:08.310Z,13.38
2023-05-08T05:19:35.004Z,12.82
2023-05-08T05:22:01.894Z,13.45
2023-05-08T05:24:28.586Z,13.48
2023-05-08T05:26:55.263Z,13.07
2023-05-08T05:29:21.852Z,13.10
2023-05-08T05:31:48.544Z,13.93
2023-05-08T05:34:15.467Z,12.38
2023-05-08T05:36:42.133Z,13.05
2023-05-08T05:39:08.794Z,13.43
2023-05-08T05:41:36.243Z,13.43
2023-05-08T05:44:03.126Z,14.63
2023-05-08T05:46:32.634Z,13.70
2023-05-08T05:48:59.561Z,14.27
2023-05-08T05:51:27.629Z,13.40
2023-05-08T05:53:54.320Z,14.45
2023-05-08T05:56:21.761Z,15.70
2023-05-08T05:58:48.560Z,15.30
2023-05-08T06:01:15.333Z,14.45
2023-05-08T06:03:42.069Z,14.93
2023-05-08T06:06:08.896Z,14.25
2023-05-08T06:08:35.507Z,13.88
2023-05-08T06:11:02.284Z,14.38
2023-05-08T06:13:28.932Z,15.18
2023-05-08T06:15:56.572Z,15.07
2023-05-08T06:18:23.614Z,15.57
2023-05-08T06:20:56.718Z,17.50
2023-05-08T06:23:23.539Z,17.85
2023-05-08T06:25:50.214Z,18.70
2023-05-08T06:28:16.920Z,18.70
2023-05-08T06:30:43.590Z,19.55
2023-05-08T06:33:11.163Z,17.52
2023-05-08T06:35:37.818Z,18.38
2023-05-08T06:38:04.502Z,14.75
2023-05-08T06:40:31.349Z,16.98
2023-05-08T06:42:57.970Z,16.15
2023-05-08T06:45:24.573Z,19.25
2023-05-08T06:47:51.339Z,16.35
2023-05-08T06:50:18.023Z,16.85
2023-05-08T06:52:44.624Z,18.08
2023-05-08T06:55:11.631Z,18.50
2023-05-08T06:57:38.425Z,18.80
2023-05-08T07:00:06.137Z,19.10
2023-05-08T07:02:32.821Z,20.15
2023-05-08T07:04:59.622Z,17.70
2023-05-08T07:07:26.372Z,22.63
2023-05-08T07:09:53.022Z,21.73
2023-05-08T07:12:19.678Z,22.15
2023-05-08T07:14:46.380Z,20.90
2023-05-08T07:17:13.025Z,20.63
2023-05-08T07:19:39.700Z,24.05
2023-05-08T07:22:06.671Z,24.27
2023-05-08T07:24:33.664Z,24.23
2023-05-08T07:27:00.685Z,23.02
2023-05-08T07:29:27.503Z,21.65
2023-05-08T07:31:54.228Z,26.25
2023-05-08T07:34:21.263Z,25.48
2023-05-08T07:36:48.072Z,23.50
2023-05-08T07:39:14.802Z,22.27
2023-05-08T07:41:41.923Z,26.00
2023-05-08T07:44:08.749Z,20.88
2023-05-08T07:46:35.515Z,28.02
2023-05-08T07:49:02.325Z,27.90
2023-05-08T07:51:30.048Z,28.13
2023-05-08T07:53:56.736Z,28.63
2023-05-08T07:56:23.507Z,29.85
2023-05-08T07:58:50.254Z,29.45
2023-05-08T08:01:18.190Z,29.60
2023-05-08T08:03:48.261Z,30.30
2023-05-08T08:06:14.953Z,28.30
2023-05-08T08:08:41.645Z,29.52
2023-05-08T08:11:08.548Z,28.65
2023-05-08T08:13:35.233Z,29.98
2023-05-08T08:16:04.122Z,31.67
2023-05-08T08:18:33.788Z,32.30
2023-05-08T08:21:00.369Z,31.40
2023-05-08T08:23:27.369Z,33.50
2023-05-08T08:25:54.380Z,31.20
2023-05-08T08:28:21.100Z,33.53
2023-05-08T08:30:47.795Z,32.10
2023-05-08T08:33:15.841Z,32.28
2023-05-08T08:35:44.158Z,33.13
2023-05-08T08:38:10.769Z,31.48
2023-05-08T08:40:41.315Z,31.70
2023-05-08T08:43:08.911Z,32.72
2023-05-08T08:45:37.138Z,31.08
2023-05-08T08:48:04.755Z,27.60
2023-05-08T08:50:35.826Z,31.30
2023-05-08T08:53:25.796Z,30.60
2023-05-08T08:55:55.937Z,31.70
2023-05-08T08:58:59.452Z,28.83
2023-05-08T09:01:29.312Z,29.05
2023-05-08T09:03:59.762Z,27.38
2023-05-08T09:06:27.635Z,25.45
2023-05-08T09:08:56.925Z,30.27
2023-05-08T09:11:24.502Z,31.75
2023-05-08T09:13:51.588Z,34.42
2023-05-08T09:16:18.641Z,33.28
2023-05-08T09:18:45.309Z,34.13
2023-05-08T09:21:12.557Z,34.60
2023-05-08T09:23:58.867Z,35.92
2023-05-08T09:26:33.845Z,30.83
2023-05-08T09:29:22.047Z,31.85
2023-05-08T09:31:50.826Z,35.70
2023-05-08T09:34:33.159Z,34.60
2023-05-08T09:37:05.918Z,37.80
2023-05-08T09:39:32.653Z,32.88
2023-05-08T09:42:04.272Z,36.78
2023-05-08T09:44:49.609Z,37.13
2023-05-08T09:47:24.237Z,36.78
2023-05-08T09:50:01.105Z,39.38
2023-05-08T09:52:29.285Z,35.75
2023-05-08T09:55:09.833Z,37.40
2023-05-08T09:57:39.183Z,42.72
2023-05-08T10:00:10.201Z,39.58
2023-05-08T10:02:38.431Z,45.72
2023-05-08T10:05:22.042Z,45.42
2023-05-08T10:07:48.739Z,41.08
2023-05-08T10:10:26.873Z,46.38
2023-05-08T10:12:58.358Z,45.40
2023-05-08T10:18:01.103Z,44.88
2023-05-08T10:20:30.261Z,48.17
2023-05-08T10:22:57.987Z,51.03
2023-05-08T10:25:25.959Z,50.03
2023-05-08T10:27:58.307Z,53.00
2023-05-08T10:30:26.048Z,53.80
2023-05-08T10:32:58.300Z,54.75
2023-05-08T10:35:25.851Z,57.67
2023-05-08T10:37:53.754Z,55.40
2023-05-08T10:40:21.353Z,53.60
2023-05-08T10:42:49.025Z,53.45
2023-05-08T10:45:15.836Z,54.53
2023-05-08T10:47:53.144Z,53.63
2023-05-08T10:50:31.144Z,48.55
2023-05-08T10:53:17.048Z,47.60
2023-05-08T10:55:49.981Z,49.25
2023-05-08T10:58:32.812Z,48.83
2023-05-08T11:01:07.865Z,46.28
2023-05-08T11:03:50.648Z,46.63
2023-05-08T11:06:48.827Z,49.20
2023-05-08T11:09:30.296Z,47.10
2023-05-08T11:12:07.490Z,47.50
2023-05-08T11:14:36.441Z,47.35
2023-05-08T11:17:04.443Z,48.03
2023-05-08T11:19:31.389Z,51.20
2023-05-08T11:22:15.151Z,50.33
2023-05-08T11:24:55.743Z,49.42
2023-05-08T11:27:51.544Z,48.92
2023-05-08T11:30:32.964Z,50.15
2023-05-08T11:33:06.213Z,51.55
2023-05-08T11:35:57.081Z,49.58
2023-05-08T11:38:28.062Z,52.17
2023-05-08T11:41:03.575Z,51.33
2023-05-08T11:43:33.253Z,51.45
2023-05-08T11:46:05.666Z,51.30
2023-05-08T11:48:32.848Z,49.15
2023-05-08T11:51:00.391Z,47.45
2023-05-08T11:53:27.799Z,45.67
2023-05-08T11:55:54.983Z,46.50
2023-05-08T11:58:21.966Z,48.08
2023-05-08T12:00:49.450Z,44.97
2023-05-08T12:03:19.080Z,44.30
2023-05-08T12:05:46.460Z,43.30
2023-05-08T12:08:14.565Z,44.15
2023-05-08T12:10:53.066Z,44.17
2023-05-08T12:13:23.801Z,43.10
2023-05-08T12:15:53.539Z,46.05
2023-05-08T12:18:21.700Z,46.25
2023-05-08T12:20:53.325Z,46.60
2023-05-08T12:23:20.416Z,45.88
2023-05-08T12:25:47.087Z,44.25
2023-05-08T12:28:13.861Z,43.00
2023-05-08T12:30:41.001Z,41.72
2023-05-08T12:33:08.266Z,41.03
2023-05-08T12:35:34.973Z,40.13
2023-05-08T12:38:07.871Z,37.97
2023-05-08T12:40:36.155Z,37.38
2023-05-08T12:43:03.928Z,36.10
2023-05-08T12:45:34.074Z,36.08
2023-05-08T12:48:06.441Z,32.63
2023-05-08T12:50:38.702Z,30.95
2023-05-08T12:53:18.708Z,31.88
2023-05-08T12:55:56.883Z,31.67
2023-05-08T12:58:41.527Z,30.95
2023-05-08T13:01:13.388Z,31.15
2023-05-08T13:03:41.315Z,32.83
2023-05-08T13:06:19.685Z,32.50
2023-05-08T13:08:52.295Z,31.08
2023-05-08T13:11:30.577Z,30.13
2023-05-08T13:13:57.252Z,28.98
2023-05-08T13:16:23.947Z,25.50
2023-05-08T13:18:50.648Z,26.00
2023-05-08T13:21:17.390Z,28.55
2023-05-08T13:23:44.103Z,27.35
2023-05-08T13:26:10.711Z,26.67
2023-05-08T13:28:37.317Z,25.20
2023-05-08T13:31:03.942Z,23.83
2023-05-08T13:33:30.538Z,26.40
2023-05-08T13:35:57.203Z,28.05
2023-05-08T13:38:23.858Z,24.83
2023-05-08T13:40:50.673Z,23.50
2023-05-08T13:43:17.456Z,24.70
2023-05-08T13:45:44.148Z,24.02
2023-05-08T13:48:10.871Z,22.58
2023-05-08T13:50:37.599Z,23.88
2023-05-08T13:53:04.772Z,24.95
2023-05-08T13:55:31.894Z,23.50
2023-05-08T13:57:58.911Z,23.13
2023-05-08T14:00:27.931Z,22.85
2023-05-08T14:02:55.137Z,25.33
2023-05-08T14:05:22.082Z,25.55
2023-05-08T14:07:48.808Z,25.58
2023-05-08T14:10:17.113Z,23.65
2023-05-08T14:12:43.928Z,24.85
2023-05-08T14:15:11.782Z,24.95
2023-05-08T14:17:38.766Z,25.40
2023-05-08T14:20:06.607Z,25.58
2023-05-08T14:22:33.237Z,26.48
2023-05-08T14:24:59.984Z,25.98
2023-05-08T14:27:26.680Z,26.65
2023-05-08T14:29:54.139Z,26.42
2023-05-08T14:32:21.014Z,26.67
2023-05-08T14:34:47.761Z,25.83
2023-05-08T14:37:14.445Z,26.80
2023-05-08T14:39:41.022Z,26.73
2023-05-08T14:44:37.484Z,26.00
2023-05-08T14:47:04.200Z,25.63
2023-05-08T14:49:38.149Z,26.17
2023-05-08T14:52:06.432Z,24.98
2023-05-08T14:54:33.721Z,26.52
2023-05-08T14:57:00.613Z,25.30
2023-05-08T14:59:27.225Z,25.58
2023-05-08T15:01:54.113Z,25.08
2023-05-08T15:04:20.981Z,24.70
2023-05-08T15:06:47.902Z,23.85
2023-05-08T15:09:16.448Z,25.38
2023-05-08T15:11:43.348Z,24.92
2023-05-08T15:14:09.967Z,26.00
2023-05-08T15:16:36.833Z,25.88
2023-05-08T15:19:03.659Z,25.48
2023-05-08T15:21:31.027Z,26.67
2023-05-08T15:23:57.770Z,26.45
2023-05-08T15:26:24.391Z,27.20
2023-05-08T15:28:51.050Z,26.33
2023-05-08T15:31:18.612Z,25.25
2023-05-08T15:33:45.766Z,26.33
2023-05-08T15:36:15.845Z,26.73
2023-05-08T15:38:43.045Z,27.52
2023-05-08T15:41:14.714Z,28.23
2023-05-08T15:43:42.341Z,28.55
2023-05-08T15:46:09.160Z,29.52
2023-05-08T15:48:36.170Z,29.65
2023-05-08T15:51:02.814Z,29.50
2023-05-08T15:53:29.504Z,28.38
2023-05-08T15:55:57.010Z,29.42
2023-05-08T15:58:24.013Z,33.92
2023-05-08T16:00:50.748Z,32.80
2023-05-08T16:03:17.739Z,31.30
2023-05-08T16:05:44.665Z,33.22
2023-05-08T16:08:12.859Z,35.63
2023-05-08T16:10:40.615Z,33.55
2023-05-08T16:13:07.942Z,37.20
2023-05-08T16:15:34.727Z,39.78
2023-05-08T16:18:01.465Z,41.53
2023-05-08T16:20:28.203Z,41.45
2023-05-08T16:22:55.895Z,43.30
2023-05-08T16:25:22.930Z,45.22
2023-05-08T16:27:49.740Z,48.33
2023-05-08T16:30:17.102Z,50.55
2023-05-08T16:32:47.239Z,50.97
2023-05-08T16:35:14.856Z,50.30
2023-05-08T16:37:41.933Z,50.63
2023-05-08T16:40:09.580Z,49.97
2023-05-08T16:42:36.947Z,49.65
2023-05-08T16:45:04.958Z,49.08
2023-05-08T16:47:31.955Z,51.72
2023-05-08T16:49:58.720Z,49.70
2023-05-08T16:52:25.873Z,48.40
2023-05-08T16:54:53.003Z,47.38
2023-05-08T16:57:19.709Z,49.63
2023-05-08T16:59:46.345Z,47.10
2023-05-08T17:02:18.369Z,50.10
2023-05-08T17:04:49.003Z,49.10
2023-05-08T17:07:16.124Z,46.95
2023-05-08T17:09:43.419Z,48.83
2023-05-08T17:12:10.446Z,46.10
2023-05-08T17:14:39.383Z,51.92
2023-05-08T17:17:06.966Z,49.95
2023-05-08T17:19:33.737Z,50.78
2023-05-08T17:22:00.469Z,48.63
2023-05-08T17:24:27.478Z,48.55
2023-05-08T17:26:54.172Z,49.20
2023-05-08T17:29:20.887Z,48.25
2023-05-08T17:31:47.633Z,47.50
2023-05-08T17:34:14.370Z,46.72
2023-05-08T17:36:41.053Z,44.95
2023-05-08T17:39:07.782Z,45.33
2023-05-08T17:41:34.457Z,43.80
2023-05-08T17:44:01.140Z,42.80
2023-05-08T17:46:27.743Z,43.33
2023-05-08T17:48:54.396Z,41.92
2023-05-08T17:51:21.097Z,38.65
2023-05-08T17:53:47.805Z,38.58
2023-05-08T17:56:16.311Z,39.60
2023-05-08T17:58:43.520Z,37.53
2023-05-08T18:01:10.206Z,36.15
2023-05-08T18:03:36.939Z,35.63
2023-05-08T18:06:03.697Z,33.03
2023-05-08T18:08:30.445Z,32.85
2023-05-08T18:10:57.061Z,29.80
2023-05-08T18:13:23.737Z,31.55
2023-05-08T18:15:50.616Z,34.70
2023-05-08T18:18:17.326Z,37.92
2023-05-08T18:20:43.953Z,39.40
2023-05-08T18:23:10.693Z,40.10
2023-05-08T18:25:37.297Z,43.08
2023-05-08T18:28:04.017Z,41.08
2023-05-08T18:30:31.460Z,41.85
2023-05-08T18:32:58.212Z,42.05
2023-05-08T18:35:24.939Z,41.55
2023-05-08T18:37:51.673Z,42.38
2023-05-08T18:40:18.417Z,42.25
2023-05-08T18:42:45.072Z,40.65
2023-05-08T18:45:12.023Z,44.08
2023-05-08T18:47:38.729Z,42.17
2023-05-08T18:50:05.865Z,43.05
2023-05-08T18:52:32.582Z,41.75
2023-05-08T18:54:59.287Z,39.78
2023-05-08T18:57:25.950Z,40.85
2023-05-08T18:59:52.875Z,42.50
2023-05-08T19:02:19.568Z,42.92
2023-05-08T19:04:46.412Z,41.60
2023-05-08T19:07:13.004Z,41.95
2023-05-08T19:09:39.590Z,42.92
2023-05-08T19:12:06.275Z,41.75
2023-05-08T19:14:32.884Z,43.35
2023-05-08T19:16:59.605Z,43.03
2023-05-08T19:19:26.296Z,43.63
2023-05-08T19:21:53.000Z,43.38
2023-05-08T19:24:20.855Z,42.15
2023-05-08T19:26:47.709Z,43.45
2023-05-08T19:29:14.306Z,41.95
2023-05-08T19:31:41.209Z,43.53
2023-05-08T19:34:08.049Z,41.33
2023-05-08T19:36:37.485Z,41.35
2023-05-08T19:39:04.453Z,40.63
2023-05-08T19:41:31.159Z,41.35
2023-05-08T19:43:57.853Z,37.20
2023-05-08T19:46:24.787Z,40.58
2023-05-08T19:48:51.627Z,41.85
2023-05-08T19:51:18.328Z,40.45
2023-05-08T19:53:44.960Z,40.75
2023-05-08T19:56:11.599Z,37.90
2023-05-08T19:58:38.252Z,38.38
2023-05-08T20:01:04.997Z,36.10
2023-05-08T20:03:31.919Z,34.97
2023-05-08T20:05:58.623Z,34.33
2023-05-08T20:08:25.392Z,34.67
2023-05-08T20:10:52.242Z,32.35
2023-05-08T20:13:18.990Z,32.83
2023-05-08T20:15:45.893Z,35.67
2023-05-08T20:18:12.626Z,30.73
2023-05-08T20:20:39.281Z,30.77
2023-05-08T20:23:05.939Z,31.63
2023-05-08T20:25:32.620Z,31.45
2023-05-08T20:27:59.267Z,30.35
2023-05-08T20:30:25.947Z,30.35
2023-05-08T20:32:52.779Z,29.15
2023-05-08T20:35:19.623Z,28.20
2023-05-08T20:37:47.897Z,28.70
2023-05-08T20:40:15.514Z,27.35
2023-05-08T20:42:42.541Z,26.98
2023-05-08T20:45:09.945Z,26.90
2023-05-08T20:47:36.766Z,26.33
2023-05-08T20:50:04.176Z,25.80
2023-05-08T20:52:35.322Z,24.23
2023-05-08T20:55:04.464Z,24.35
2023-05-08T20:57:31.118Z,23.75
2023-05-08T20:59:57.748Z,23.92
2023-05-08T21:02:24.578Z,24.75
2023-05-08T21:04:52.659Z,24.23
2023-05-08T21:07:19.433Z,25.70
2023-05-08T21:09:46.160Z,25.15
2023-05-08T21:12:12.828Z,25.33
2023-05-08T21:14:39.537Z,24.50
2023-05-08T21:17:06.220Z,22.95
2023-05-08T21:19:32.866Z,22.95
2023-05-08T21:21:59.547Z,24.02
2023-05-08T21:24:26.276Z,23.10
2023-05-08T21:26:53.436Z,24.17
2023-05-08T21:29:20.242Z,23.75
2023-05-08T21:31:46.926Z,24.95
2023-05-08T21:34:14.815Z,23.75
2023-05-08T21:36:41.613Z,23.42
2023-05-08T21:39:08.788Z,23.95
2023-05-08T21:41:35.393Z,22.38
2023-05-08T21:44:02.084Z,24.08
2023-05-08T21:46:28.765Z,24.10
2023-05-08T21:48:55.461Z,23.67
2023-05-08T21:51:22.109Z,23.42
2023-05-08T21:53:48.887Z,25.23
2023-05-08T21:56:16.521Z,23.98
2023-05-08T21:58:43.214Z,25.00
2023-05-08T22:01:09.935Z,23.85
2023-05-08T22:03:36.968Z,24.15
2023-05-08T22:06:03.969Z,22.90
2023-05-08T22:08:30.696Z,24.10
2023-05-08T22:10:57.642Z,22.25
2023-05-08T22:13:24.354Z,24.38
2023-05-08T22:15:51.103Z,22.60
2023-05-08T22:18:18.002Z,23.83
2023-05-08T22:20:44.703Z,24.75
2023-05-08T22:23:11.361Z,22.17
2023-05-08T22:25:38.114Z,23.50
2023-05-08T22:28:04.836Z,24.17
2023-05-08T22:30:31.462Z,24.42
2023-05-08T22:32:59.435Z,23.10
2023-05-08T22:35:27.603Z,25.02
2023-05-08T22:37:55.533Z,23.92
2023-05-08T22:40:22.908Z,23.75
2023-05-08T22:42:51.558Z,24.58
2023-05-08T22:45:18.666Z,23.17
2023-05-08T22:47:45.900Z,23.95
2023-05-08T22:50:12.616Z,22.50
2023-05-08T22:52:39.602Z,22.63
2023-05-08T22:55:07.115Z,21.50
2023-05-08T22:57:33.919Z,22.95
2023-05-08T23:00:00.715Z,23.88
2023-05-08T23:02:34.740Z,23.13
2023-05-08T23:05:02.235Z,23.67
2023-05-08T23:07:29.172Z,22.98
2023-05-08T23:09:55.919Z,23.67
2023-05-08T23:12:22.599Z,22.05
2023-05-08T23:14:49.240Z,22.60
2023-05-08T23:17:15.954Z,22.80
2023-05-08T23:19:42.727Z,23.63
2023-05-08T23:22:09.698Z,23.90
2023-05-08T23:24:36.885Z,24.45
2023-05-08T23:27:03.661Z,24.45
2023-05-08T23:29:30.319Z,24.88
2023-05-08T23:31:56.926Z,26.15
2023-05-08T23:34:23.584Z,25.50
2023-05-08T23:36:50.420Z,24.02
2023-05-08T23:39:17.184Z,25.15
2023-05-08T23:41:43.853Z,26.85
2023-05-08T23:44:10.476Z,26.45
2023-05-08T23:46:37.115Z,27.55
2023-05-08T23:49:05.451Z,27.48
2023-05-08T23:51:32.662Z,27.38
2023-05-08T23:53:59.257Z,27.83
2023-05-08T23:56:26.935Z,27.85
2023-05-08T23:58:53.622Z,28.02
